createdAt,value
2023-03-26T00:00:45.009Z,6.22
2023-03-26T00:05:49.540Z,6.25
2023-03-26T00:10:54.148Z,6.30
2023-03-26T00:16:00.108Z,6.26
2023-03-26T00:21:06.857Z,6.25
2023-03-26T00:26:11.901Z,6.26
2023-03-26T00:31:18.009Z,6.31
2023-03-26T00:36:22.825Z,6.38
2023-03-26T00:41:31.225Z,6.43
2023-03-26T00:46:37.451Z,6.48
2023-03-26T00:51:42.236Z,6.46
2023-03-26T00:56:46.771Z,6.42
2023-03-26T01:01:55.189Z,6.38
2023-03-26T01:07:02.819Z,6.36
2023-03-26T01:12:08.540Z,6.48
2023-03-26T01:17:16.205Z,6.61
2023-03-26T01:22:21.971Z,6.57
2023-03-26T01:27:33.740Z,6.59
2023-03-26T01:32:55.616Z,6.50
2023-03-26T01:38:18.543Z,6.40
2023-03-26T01:43:29.094Z,6.35
2023-03-26T01:48:36.210Z,6.31
2023-03-26T01:53:43.617Z,6.24
2023-03-26T01:58:57.747Z,6.22
2023-03-26T02:04:09.094Z,6.23
2023-03-26T02:09:18.502Z,6.31
2023-03-26T02:14:24.051Z,6.41
2023-03-26T02:19:28.580Z,6.43
2023-03-26T02:24:32.540Z,6.51
2023-03-26T02:29:39.834Z,6.58
2023-03-26T02:34:47.488Z,6.69
2023-03-26T02:39:51.916Z,6.78
2023-03-26T02:45:09.239Z,6.84
2023-03-26T02:50:13.766Z,6.87
2023-03-26T02:55:41.835Z,6.94
2023-03-26T03:00:51.863Z,6.97
2023-03-26T03:06:05.705Z,7.04
2023-03-26T03:11:21.802Z,7.09
2023-03-26T03:16:30.306Z,7.17
2023-03-26T03:21:37.691Z,7.25
2023-03-26T03:26:45.670Z,7.25
2023-03-26T03:32:07.344Z,7.24
2023-03-26T03:37:17.358Z,7.30
2023-03-26T03:42:31.916Z,7.27
2023-03-26T03:47:40.655Z,7.28
2023-03-26T03:52:44.817Z,7.31
2023-03-26T03:57:52.569Z,7.28
2023-03-26T04:03:06.689Z,7.18
2023-03-26T04:08:11.937Z,7.09
2023-03-26T04:13:29.134Z,6.97
2023-03-26T04:19:04.866Z,7.02
2023-03-26T04:24:11.055Z,7.05
2023-03-26T04:29:53.590Z,6.99
2023-03-26T04:35:04.254Z,6.94
2023-03-26T04:40:14.532Z,6.94
2023-03-26T04:45:32.000Z,6.93
2023-03-26T04:50:38.118Z,6.90
2023-03-26T04:55:46.361Z,6.86
2023-03-26T05:01:09.921Z,6.84
2023-03-26T05:06:22.020Z,6.91
2023-03-26T05:11:26.799Z,6.90
2023-03-26T05:16:31.838Z,6.94
2023-03-26T05:21:54.592Z,6.85
2023-03-26T05:26:59.113Z,6.91
2023-03-26T05:32:04.042Z,7.02
2023-03-26T05:37:10.184Z,7.05
2023-03-26T05:42:39.899Z,7.22
2023-03-26T05:48:02.309Z,7.15
2023-03-26T05:53:07.913Z,7.32
2023-03-26T05:58:21.450Z,7.50
2023-03-26T06:03:40.200Z,7.55
2023-03-26T06:09:02.073Z,7.54
2023-03-26T06:14:08.439Z,7.59
2023-03-26T06:19:15.861Z,7.43
2023-03-26T06:24:37.319Z,7.74
2023-03-26T06:29:58.818Z,8.04
2023-03-26T06:35:14.614Z,8.18
2023-03-26T06:40:20.664Z,8.34
2023-03-26T06:45:44.166Z,8.33
2023-03-26T06:51:09.076Z,8.31
2023-03-26T06:56:33.020Z,8.30
2023-03-26T07:01:50.956Z,8.38
2023-03-26T07:07:14.262Z,8.60
2023-03-26T07:12:38.681Z,8.44
2023-03-26T07:18:01.719Z,8.50
2023-03-26T07:23:11.451Z,8.59
2023-03-26T07:28:40.465Z,8.75
2023-03-26T07:33:50.519Z,8.82
2023-03-26T07:39:20.866Z,8.78
2023-03-26T07:44:56.836Z,8.82
2023-03-26T07:50:18.820Z,9.17
2023-03-26T07:55:45.968Z,9.61
2023-03-26T08:01:26.083Z,9.59
2023-03-26T08:06:36.742Z,9.69
2023-03-26T08:12:18.932Z,9.46
2023-03-26T08:17:31.881Z,9.60
2023-03-26T08:22:41.011Z,9.43
2023-03-26T08:27:50.108Z,9.45
2023-03-26T08:32:57.613Z,9.33
2023-03-26T08:38:02.000Z,9.50
2023-03-26T08:43:58.056Z,9.56
2023-03-26T08:49:30.633Z,9.53
2023-03-26T08:55:09.785Z,9.65
2023-03-26T09:01:02.994Z,9.71
2023-03-26T09:06:25.480Z,9.49
2023-03-26T09:11:56.392Z,9.22
2023-03-26T09:17:21.774Z,9.38
2023-03-26T09:23:14.654Z,9.17
2023-03-26T09:28:58.228Z,9.29
2023-03-26T09:34:12.366Z,9.63
2023-03-26T09:39:28.502Z,10.09
2023-03-26T09:45:00.428Z,10.45
2023-03-26T09:50:30.573Z,10.49
2023-03-26T09:55:46.486Z,10.63
2023-03-26T10:00:58.749Z,10.93
2023-03-26T10:06:22.640Z,11.12
2023-03-26T10:11:38.753Z,11.23
2023-03-26T10:16:53.189Z,11.07
2023-03-26T10:22:04.797Z,10.77
2023-03-26T10:27:29.341Z,10.18
2023-03-26T10:32:39.621Z,8.96
2023-03-26T10:37:54.776Z,8.87
2023-03-26T10:43:49.768Z,9.07
2023-03-26T10:49:18.156Z,9.69
2023-03-26T10:54:31.224Z,10.19
2023-03-26T10:59:35.648Z,10.27
2023-03-26T11:04:50.800Z,10.65
2023-03-26T11:10:01.689Z,10.88
2023-03-26T11:15:18.370Z,11.38
2023-03-26T11:20:30.052Z,11.53
2023-03-26T11:25:55.332Z,11.96
2023-03-26T11:31:04.570Z,12.27
2023-03-26T11:36:15.178Z,12.36
2023-03-26T11:41:23.436Z,12.27
2023-03-26T11:46:33.551Z,12.68
2023-03-26T11:51:41.273Z,12.58
2023-03-26T11:57:05.969Z,12.90
2023-03-26T12:02:23.891Z,12.69
2023-03-26T12:07:33.457Z,13.08
2023-03-26T12:12:40.435Z,13.50
2023-03-26T12:17:45.179Z,13.17
2023-03-26T12:22:53.229Z,13.16
2023-03-26T12:28:02.459Z,12.79
2023-03-26T12:33:09.067Z,12.62
2023-03-26T12:38:25.069Z,12.55
2023-03-26T12:44:48.417Z,12.74
2023-03-26T12:48:59.835Z,12.66
2023-03-26T12:54:25.997Z,12.11
2023-03-26T12:59:38.648Z,10.52
2023-03-26T13:05:05.497Z,9.16
2023-03-26T13:10:30.497Z,9.25
2023-03-26T13:15:37.822Z,9.61
2023-03-26T13:20:51.472Z,10.18
2023-03-26T13:26:06.280Z,10.38
2023-03-26T13:31:17.223Z,11.27
2023-03-26T13:36:26.232Z,11.81
2023-03-26T13:41:37.359Z,12.21
2023-03-26T13:46:43.958Z,12.39
2023-03-26T13:51:51.580Z,12.68
2023-03-26T13:57:02.553Z,12.95
2023-03-26T14:02:11.973Z,12.97
2023-03-26T14:07:22.563Z,12.30
2023-03-26T14:12:38.236Z,11.93
2023-03-26T14:17:49.369Z,11.86
2023-03-26T14:23:31.712Z,12.05
2023-03-26T14:29:14.668Z,11.64
2023-03-26T14:34:58.687Z,11.24
2023-03-26T14:40:19.351Z,11.43
2023-03-26T14:45:46.891Z,11.17
2023-03-26T14:51:02.531Z,10.98
2023-03-26T14:56:46.908Z,10.85
2023-03-26T15:02:29.222Z,9.77
2023-03-26T15:08:02.145Z,9.31
2023-03-26T15:13:25.329Z,9.46
2023-03-26T15:18:49.747Z,9.59
2023-03-26T15:24:44.902Z,9.91
2023-03-26T15:30:17.941Z,10.22
2023-03-26T15:35:50.178Z,10.16
2023-03-26T15:41:02.843Z,10.21
2023-03-26T15:46:27.296Z,10.36
2023-03-26T15:51:47.099Z,10.35
2023-03-26T15:57:09.035Z,10.47
2023-03-26T16:02:24.037Z,10.31
2023-03-26T16:07:48.071Z,10.15
2023-03-26T16:13:14.495Z,10.00
2023-03-26T16:18:33.966Z,9.92
2023-03-26T16:23:55.231Z,9.86
2023-03-26T16:29:16.004Z,9.79
2023-03-26T16:34:27.201Z,9.65
2023-03-26T16:39:42.236Z,9.65
2023-03-26T16:44:52.830Z,9.56
2023-03-26T16:50:09.553Z,9.42
2023-03-26T16:55:20.418Z,9.20
2023-03-26T17:00:36.013Z,8.94
2023-03-26T17:05:49.169Z,8.77
2023-03-26T17:11:00.464Z,8.54
2023-03-26T17:16:12.517Z,8.40
2023-03-26T17:21:20.823Z,8.22
2023-03-26T17:26:28.219Z,8.08
2023-03-26T17:31:44.316Z,7.92
2023-03-26T17:36:57.012Z,7.75
2023-03-26T17:42:32.707Z,7.65
2023-03-26T17:47:40.479Z,7.36
2023-03-26T17:52:55.679Z,7.19
2023-03-26T17:58:03.475Z,7.05
2023-03-26T18:03:15.254Z,6.82
2023-03-26T18:08:45.221Z,6.90
2023-03-26T18:14:21.788Z,6.92
2023-03-26T18:19:26.594Z,6.95
2023-03-26T18:24:34.595Z,6.85
2023-03-26T18:29:43.707Z,6.69
2023-03-26T18:34:50.132Z,6.60
2023-03-26T18:40:02.363Z,6.63
2023-03-26T18:45:10.744Z,6.68
2023-03-26T18:50:16.850Z,6.66
2023-03-26T18:55:22.262Z,6.69
2023-03-26T19:00:28.023Z,6.70
2023-03-26T19:05:33.900Z,6.76
2023-03-26T19:10:39.489Z,6.86
2023-03-26T19:15:44.736Z,6.93
2023-03-26T19:20:50.750Z,7.07
2023-03-26T19:25:57.920Z,7.18
2023-03-26T19:31:09.070Z,7.17
2023-03-26T19:36:18.815Z,7.26
2023-03-26T19:41:27.303Z,7.33
2023-03-26T19:46:53.398Z,7.35
2023-03-26T19:52:12.245Z,7.37
2023-03-26T19:57:18.200Z,7.32
2023-03-26T20:02:22.884Z,7.50
2023-03-26T20:07:34.962Z,7.56
2023-03-26T20:12:41.781Z,7.65
2023-03-26T20:17:47.283Z,7.64
2023-03-26T20:22:52.003Z,7.49
2023-03-26T20:27:58.504Z,7.33
2023-03-26T20:33:11.842Z,7.28
2023-03-26T20:38:19.869Z,7.22
2023-03-26T20:43:30.175Z,7.24
2023-03-26T20:48:35.375Z,7.16
2023-03-26T20:53:41.591Z,7.23
2023-03-26T20:58:52.657Z,7.27
2023-03-26T21:04:04.289Z,7.31
2023-03-26T21:09:10.329Z,7.10
2023-03-26T21:14:20.786Z,7.14
2023-03-26T21:19:25.254Z,6.99
2023-03-26T21:24:40.229Z,6.94
2023-03-26T21:29:46.864Z,6.76
2023-03-26T21:34:58.143Z,6.67
2023-03-26T21:40:14.139Z,6.72
2023-03-26T21:45:21.123Z,6.78
2023-03-26T21:50:25.805Z,6.89
2023-03-26T21:55:36.147Z,6.94
2023-03-26T22:00:51.781Z,6.87
2023-03-26T22:06:00.820Z,6.90
2023-03-26T22:11:05.196Z,6.89
2023-03-26T22:16:11.945Z,6.81
2023-03-26T22:21:16.281Z,6.75
2023-03-26T22:26:21.990Z,6.74
2023-03-26T22:31:28.083Z,6.71
2023-03-26T22:36:32.873Z,6.77
2023-03-26T22:41:37.229Z,6.72
2023-03-26T22:46:44.873Z,6.67
2023-03-26T22:51:50.332Z,6.76
2023-03-26T22:56:55.504Z,6.58
2023-03-26T23:02:01.472Z,6.48
2023-03-26T23:07:06.027Z,6.45
2023-03-26T23:12:10.293Z,6.35
2023-03-26T23:17:15.789Z,6.35
2023-03-26T23:22:20.368Z,6.35
2023-03-26T23:27:24.698Z,6.34
2023-03-26T23:32:30.535Z,6.34
2023-03-26T23:37:35.513Z,6.36
2023-03-26T23:42:39.992Z,6.40
2023-03-26T23:47:46.865Z,6.40
2023-03-26T23:52:52.583Z,6.41
2023-03-26T23:57:57.442Z,6.44
